Ana Sayfa
METAR-TAF:

METAR-TAF

Havaalanları :

Mahajanga, Madagaskar

Enlem: 15-40S, Boylam: 046-21E, yükseklik: 26 m

Güncel hava durumu gözlemi

Rapor saat 06:00 UTC de 42 dakika önce yapıldı.
Rüzgar doğu/güneydoğudan 10 kt
Sıcaklık 29°C
Nem 40%
Basınç 1017 hPa
Görüş mesafesi 10 km veya daha fazla
1500 m altında bulut yok ve kümülonimbus yok

METAR: FMNM 250600Z 12010KT CAVOK 29/14 Q1017 NOSIG

Saat: 09:42 (06:42 UTC)

Tahmin

Rapor saat 05:00 UTC de 1 saat ve 42 dakika önce yapıldı.
Ayın 25'si saat 06 UTC'den ayın 26'si saat 06 UTC'ye kadar geçerli Tahmin
Rüzgar doğu/güneydoğudan 8 kt
Görüş mesafesi 10 km veya daha fazla
2000 ft yükseklikte az bulutlu
Dönüşüyor
ayın 25'si saat 09 UTC'den ayın 25'si saat 12 UTC'ye kadar
Rüzgar kuzeybatıdan 10 kt
Dönüşüyor
ayın 25'si saat 16 UTC'den ayın 25'si saat 19 UTC'ye kadar
Rüzgar doğu/güneydoğudan 5 kt

TAF: FMNM 250500Z 2506/2606 12008KT 9999 FEW020 BECMG 2509/2512 32010KT BECMG 2516/2519 12005KT

4.000'den fazla havaalanı için hava durumu gözlemleri ve tahminleri (METAR ve TAF raporları).

Kullanılabilir istasyonlar harita üzerinde sarı ve kırmızı noktalarla gösterilir.

İstasyonun adını görmek için fareyi noktanın üzerinde gezdirin.

Sonrasında hava gözlem ve tahminlerini görmek için tıklayın.

Haritayı değiştirmek için: yaklaştırmak için siyah artı işaretli yeşil düğmeye ve uzaklaştırmak için de eksi işaretli düğmeye hızla tıklayın; bitişik haritalar için yeşil okları kullanın.


METAR-TAF: